sensor_id;sensor_type;location;lat;lon;timestamp;temperature;humidity
20568;DHT22;10442;49.932;11.592;2023-07-31T00:00:55;18.60;63.50
20568;DHT22;10442;49.932;11.592;2023-07-31T00:03:23;18.50;63.60
20568;DHT22;10442;49.932;11.592;2023-07-31T00:05:50;18.50;63.50
20568;DHT22;10442;49.932;11.592;2023-07-31T00:08:17;18.40;63.60
20568;DHT22;10442;49.932;11.592;2023-07-31T00:10:45;18.40;63.70
20568;DHT22;10442;49.932;11.592;2023-07-31T00:13:12;18.40;63.80
20568;DHT22;10442;49.932;11.592;2023-07-31T00:15:39;18.40;64.00
20568;DHT22;10442;49.932;11.592;2023-07-31T00:18:07;18.40;64.00
20568;DHT22;10442;49.932;11.592;2023-07-31T00:20:34;18.30;64.00
20568;DHT22;10442;49.932;11.592;2023-07-31T00:23:02;18.30;64.10
20568;DHT22;10442;49.932;11.592;2023-07-31T00:25:30;18.30;64.30
20568;DHT22;10442;49.932;11.592;2023-07-31T00:27:57;18.30;64.30
20568;DHT22;10442;49.932;11.592;2023-07-31T00:30:26;18.20;64.40
20568;DHT22;10442;49.932;11.592;2023-07-31T00:32:54;18.20;64.50
20568;DHT22;10442;49.932;11.592;2023-07-31T00:35:21;18.20;64.60
20568;DHT22;10442;49.932;11.592;2023-07-31T00:37:49;18.10;64.60
20568;DHT22;10442;49.932;11.592;2023-07-31T00:40:17;18.20;64.70
20568;DHT22;10442;49.932;11.592;2023-07-31T00:42:44;18.20;64.60
20568;DHT22;10442;49.932;11.592;2023-07-31T00:45:12;18.20;64.80
20568;DHT22;10442;49.932;11.592;2023-07-31T00:47:39;18.20;64.80
20568;DHT22;10442;49.932;11.592;2023-07-31T00:50:08;18.20;64.80
20568;DHT22;10442;49.932;11.592;2023-07-31T00:52:36;18.30;65.00
20568;DHT22;10442;49.932;11.592;2023-07-31T00:55:04;18.30;65.20
20568;DHT22;10442;49.932;11.592;2023-07-31T00:57:33;18.30;65.40
20568;DHT22;10442;49.932;11.592;2023-07-31T01:00:02;18.40;65.40
20568;DHT22;10442;49.932;11.592;2023-07-31T01:02:31;18.40;65.10
20568;DHT22;10442;49.932;11.592;2023-07-31T01:04:59;18.40;65.20
20568;DHT22;10442;49.932;11.592;2023-07-31T01:10:23;18.50;65.20
20568;DHT22;10442;49.932;11.592;2023-07-31T01:12:53;18.50;65.60
20568;DHT22;10442;49.932;11.592;2023-07-31T01:15:23;18.60;65.00
20568;DHT22;10442;49.932;11.592;2023-07-31T01:17:51;18.60;65.10
20568;DHT22;10442;49.932;11.592;2023-07-31T01:20:23;18.70;65.20
20568;DHT22;10442;49.932;11.592;2023-07-31T01:26:16;18.70;65.70
20568;DHT22;10442;49.932;11.592;2023-07-31T01:29:03;18.70;65.40
20568;DHT22;10442;49.932;11.592;2023-07-31T01:31:36;18.70;65.20
20568;DHT22;10442;49.932;11.592;2023-07-31T01:34:04;18.80;65.10
20568;DHT22;10442;49.932;11.592;2023-07-31T01:36:32;18.80;64.70
20568;DHT22;10442;49.932;11.592;2023-07-31T01:39:01;18.80;64.70
20568;DHT22;10442;49.932;11.592;2023-07-31T01:41:29;18.70;64.50
20568;DHT22;10442;49.932;11.592;2023-07-31T01:43:57;18.80;64.80
20568;DHT22;10442;49.932;11.592;2023-07-31T01:46:24;18.80;64.50
20568;DHT22;10442;49.932;11.592;2023-07-31T01:48:52;18.80;64.60
20568;DHT22;10442;49.932;11.592;2023-07-31T01:51:19;18.80;64.70
20568;DHT22;10442;49.932;11.592;2023-07-31T01:53:47;18.80;64.80
20568;DHT22;10442;49.932;11.592;2023-07-31T01:56:15;18.80;64.70
20568;DHT22;10442;49.932;11.592;2023-07-31T01:58:42;18.80;64.90
20568;DHT22;10442;49.932;11.592;2023-07-31T02:01:09;18.80;65.20
20568;DHT22;10442;49.932;11.592;2023-07-31T02:03:37;18.90;65.30
20568;DHT22;10442;49.932;11.592;2023-07-31T02:06:05;18.90;65.30
20568;DHT22;10442;49.932;11.592;2023-07-31T02:08:32;18.80;65.30
20568;DHT22;10442;49.932;11.592;2023-07-31T02:11:00;18.90;65.50
20568;DHT22;10442;49.932;11.592;2023-07-31T02:13:27;18.90;65.70
20568;DHT22;10442;49.932;11.592;2023-07-31T02:15:55;18.90;65.80
20568;DHT22;10442;49.932;11.592;2023-07-31T02:18:23;18.90;66.20
20568;DHT22;10442;49.932;11.592;2023-07-31T02:20:51;18.90;66.20
20568;DHT22;10442;49.932;11.592;2023-07-31T02:23:19;18.90;66.70
20568;DHT22;10442;49.932;11.592;2023-07-31T02:25:47;19.00;66.60
20568;DHT22;10442;49.932;11.592;2023-07-31T02:28:14;19.00;66.10
20568;DHT22;10442;49.932;11.592;2023-07-31T02:30:45;19.00;65.80
20568;DHT22;10442;49.932;11.592;2023-07-31T02:33:15;19.00;65.70
20568;DHT22;10442;49.932;11.592;2023-07-31T02:35:43;19.00;65.80
20568;DHT22;10442;49.932;11.592;2023-07-31T02:38:11;19.10;66.70
20568;DHT22;10442;49.932;11.592;2023-07-31T02:40:39;19.10;65.50
20568;DHT22;10442;49.932;11.592;2023-07-31T02:43:09;19.10;65.30
20568;DHT22;10442;49.932;11.592;2023-07-31T02:45:36;19.10;65.60
20568;DHT22;10442;49.932;11.592;2023-07-31T02:48:04;19.10;65.80
20568;DHT22;10442;49.932;11.592;2023-07-31T02:50:32;19.10;65.80
20568;DHT22;10442;49.932;11.592;2023-07-31T02:53:00;19.20;65.80
20568;DHT22;10442;49.932;11.592;2023-07-31T02:55:27;19.20;65.60
20568;DHT22;10442;49.932;11.592;2023-07-31T02:57:55;19.20;65.30
20568;DHT22;10442;49.932;11.592;2023-07-31T03:00:22;19.20;65.40
20568;DHT22;10442;49.932;11.592;2023-07-31T03:02:50;19.20;65.30
20568;DHT22;10442;49.932;11.592;2023-07-31T03:05:17;19.20;65.20
20568;DHT22;10442;49.932;11.592;2023-07-31T03:07:46;19.20;64.80
20568;DHT22;10442;49.932;11.592;2023-07-31T03:10:14;19.30;64.40
20568;DHT22;10442;49.932;11.592;2023-07-31T03:12:42;19.30;64.30
20568;DHT22;10442;49.932;11.592;2023-07-31T03:15:09;19.30;64.50
20568;DHT22;10442;49.932;11.592;2023-07-31T03:17:37;19.30;64.40
20568;DHT22;10442;49.932;11.592;2023-07-31T03:20:05;19.30;64.20
20568;DHT22;10442;49.932;11.592;2023-07-31T03:22:33;19.30;64.20
20568;DHT22;10442;49.932;11.592;2023-07-31T03:25:03;19.40;64.00
20568;DHT22;10442;49.932;11.592;2023-07-31T03:27:30;19.30;63.70
20568;DHT22;10442;49.932;11.592;2023-07-31T03:29:59;19.40;63.60
20568;DHT22;10442;49.932;11.592;2023-07-31T03:32:29;19.30;63.60
20568;DHT22;10442;49.932;11.592;2023-07-31T03:34:57;19.40;63.70
20568;DHT22;10442;49.932;11.592;2023-07-31T03:37:25;19.40;63.60
20568;DHT22;10442;49.932;11.592;2023-07-31T03:39:53;19.40;63.30
20568;DHT22;10442;49.932;11.592;2023-07-31T03:42:21;19.40;62.90
20568;DHT22;10442;49.932;11.592;2023-07-31T03:44:50;19.50;63.10
20568;DHT22;10442;49.932;11.592;2023-07-31T03:47:18;19.50;62.80
20568;DHT22;10442;49.932;11.592;2023-07-31T03:49:46;19.50;62.90
20568;DHT22;10442;49.932;11.592;2023-07-31T03:52:14;19.50;63.00
20568;DHT22;10442;49.932;11.592;2023-07-31T03:54:42;19.50;62.90
20568;DHT22;10442;49.932;11.592;2023-07-31T03:57:12;19.50;62.70
20568;DHT22;10442;49.932;11.592;2023-07-31T03:59:39;19.60;62.30
20568;DHT22;10442;49.932;11.592;2023-07-31T04:02:06;19.60;62.50
20568;DHT22;10442;49.932;11.592;2023-07-31T04:04:34;19.60;62.60
20568;DHT22;10442;49.932;11.592;2023-07-31T04:07:03;19.60;62.40
20568;DHT22;10442;49.932;11.592;2023-07-31T04:09:30;19.70;62.40
20568;DHT22;10442;49.932;11.592;2023-07-31T04:11:58;19.70;62.10
20568;DHT22;10442;49.932;11.592;2023-07-31T04:14:25;19.70;62.00
20568;DHT22;10442;49.932;11.592;2023-07-31T04:16:52;19.70;62.00
20568;DHT22;10442;49.932;11.592;2023-07-31T04:19:20;19.70;61.90
20568;DHT22;10442;49.932;11.592;2023-07-31T04:21:47;19.70;61.70
20568;DHT22;10442;49.932;11.592;2023-07-31T04:24:15;19.70;62.00
20568;DHT22;10442;49.932;11.592;2023-07-31T04:26:43;19.70;62.10
20568;DHT22;10442;49.932;11.592;2023-07-31T04:29:10;19.70;61.80
20568;DHT22;10442;49.932;11.592;2023-07-31T04:31:37;19.70;61.60
20568;DHT22;10442;49.932;11.592;2023-07-31T04:34:06;19.70;61.80
20568;DHT22;10442;49.932;11.592;2023-07-31T04:36:34;19.80;61.60
20568;DHT22;10442;49.932;11.592;2023-07-31T04:39:02;19.80;61.50
20568;DHT22;10442;49.932;11.592;2023-07-31T04:41:30;19.80;61.60
20568;DHT22;10442;49.932;11.592;2023-07-31T04:43:57;19.90;61.70
20568;DHT22;10442;49.932;11.592;2023-07-31T04:46:26;19.80;61.30
20568;DHT22;10442;49.932;11.592;2023-07-31T04:48:54;19.90;61.40
20568;DHT22;10442;49.932;11.592;2023-07-31T04:51:21;19.90;61.50
20568;DHT22;10442;49.932;11.592;2023-07-31T04:53:50;19.90;61.40
20568;DHT22;10442;49.932;11.592;2023-07-31T04:56:18;20.00;61.20
20568;DHT22;10442;49.932;11.592;2023-07-31T04:58:45;20.00;61.30
20568;DHT22;10442;49.932;11.592;2023-07-31T05:06:12;20.00;61.00
20568;DHT22;10442;49.932;11.592;2023-07-31T05:08:43;20.00;60.90
20568;DHT22;10442;49.932;11.592;2023-07-31T05:11:10;20.10;61.00
20568;DHT22;10442;49.932;11.592;2023-07-31T05:13:38;20.00;60.80
20568;DHT22;10442;49.932;11.592;2023-07-31T05:16:05;20.00;61.10
20568;DHT22;10442;49.932;11.592;2023-07-31T05:18:33;20.00;61.20
20568;DHT22;10442;49.932;11.592;2023-07-31T05:21:00;20.00;61.30
20568;DHT22;10442;49.932;11.592;2023-07-31T05:23:27;20.00;61.10
20568;DHT22;10442;49.932;11.592;2023-07-31T05:25:55;20.10;61.20
20568;DHT22;10442;49.932;11.592;2023-07-31T05:28:23;20.00;61.20
20568;DHT22;10442;49.932;11.592;2023-07-31T05:30:50;20.00;61.40
20568;DHT22;10442;49.932;11.592;2023-07-31T05:33:18;20.00;61.50
20568;DHT22;10442;49.932;11.592;2023-07-31T05:35:46;20.00;61.50
20568;DHT22;10442;49.932;11.592;2023-07-31T05:38:14;20.00;61.50
20568;DHT22;10442;49.932;11.592;2023-07-31T05:40:42;20.00;61.30
20568;DHT22;10442;49.932;11.592;2023-07-31T05:43:10;20.00;61.40
20568;DHT22;10442;49.932;11.592;2023-07-31T05:45:38;20.00;61.40
20568;DHT22;10442;49.932;11.592;2023-07-31T05:48:06;20.00;61.30
20568;DHT22;10442;49.932;11.592;2023-07-31T05:50:33;20.00;61.10
20568;DHT22;10442;49.932;11.592;2023-07-31T05:53:01;20.00;61.40
20568;DHT22;10442;49.932;11.592;2023-07-31T05:55:29;20.00;61.60
20568;DHT22;10442;49.932;11.592;2023-07-31T05:57:56;20.10;61.60
20568;DHT22;10442;49.932;11.592;2023-07-31T06:00:27;20.10;61.40
20568;DHT22;10442;49.932;11.592;2023-07-31T06:02:55;20.10;61.60
20568;DHT22;10442;49.932;11.592;2023-07-31T06:05:22;20.10;61.30
20568;DHT22;10442;49.932;11.592;2023-07-31T06:07:50;20.20;61.50
20568;DHT22;10442;49.932;11.592;2023-07-31T06:10:17;20.20;61.10
20568;DHT22;10442;49.932;11.592;2023-07-31T06:12:46;20.20;61.10
20568;DHT22;10442;49.932;11.592;2023-07-31T06:15:13;20.30;61.00
20568;DHT22;10442;49.932;11.592;2023-07-31T06:17:41;20.30;60.90
20568;DHT22;10442;49.932;11.592;2023-07-31T06:20:09;20.40;61.00
20568;DHT22;10442;49.932;11.592;2023-07-31T06:22:37;20.40;60.90
20568;DHT22;10442;49.932;11.592;2023-07-31T06:25:05;20.50;60.70
20568;DHT22;10442;49.932;11.592;2023-07-31T06:27:33;20.50;60.40
20568;DHT22;10442;49.932;11.592;2023-07-31T06:30:00;20.50;60.50
20568;DHT22;10442;49.932;11.592;2023-07-31T06:32:27;20.50;60.20
20568;DHT22;10442;49.932;11.592;2023-07-31T06:34:56;20.50;60.40
20568;DHT22;10442;49.932;11.592;2023-07-31T06:37:23;20.50;60.40
20568;DHT22;10442;49.932;11.592;2023-07-31T06:39:51;20.60;60.50
20568;DHT22;10442;49.932;11.592;2023-07-31T06:42:18;20.70;60.70
20568;DHT22;10442;49.932;11.592;2023-07-31T06:44:46;20.70;60.60
20568;DHT22;10442;49.932;11.592;2023-07-31T06:47:14;20.70;60.20
20568;DHT22;10442;49.932;11.592;2023-07-31T06:49:41;20.90;59.90
20568;DHT22;10442;49.932;11.592;2023-07-31T06:52:09;20.90;59.80
20568;DHT22;10442;49.932;11.592;2023-07-31T06:54:38;21.00;59.60
20568;DHT22;10442;49.932;11.592;2023-07-31T06:57:06;21.00;59.50
20568;DHT22;10442;49.932;11.592;2023-07-31T06:59:33;21.00;59.40
20568;DHT22;10442;49.932;11.592;2023-07-31T07:02:01;21.10;59.30
20568;DHT22;10442;49.932;11.592;2023-07-31T07:04:34;21.10;59.20
20568;DHT22;10442;49.932;11.592;2023-07-31T07:07:02;21.10;59.50
20568;DHT22;10442;49.932;11.592;2023-07-31T07:09:30;21.10;59.80
20568;DHT22;10442;49.932;11.592;2023-07-31T07:11:57;21.10;59.40
20568;DHT22;10442;49.932;11.592;2023-07-31T07:14:25;21.10;59.30
20568;DHT22;10442;49.932;11.592;2023-07-31T07:16:52;21.10;59.40
20568;DHT22;10442;49.932;11.592;2023-07-31T07:19:20;21.10;59.20
20568;DHT22;10442;49.932;11.592;2023-07-31T07:21:47;21.10;59.10
20568;DHT22;10442;49.932;11.592;2023-07-31T07:24:15;21.10;59.30
20568;DHT22;10442;49.932;11.592;2023-07-31T07:26:42;21.00;59.00
20568;DHT22;10442;49.932;11.592;2023-07-31T07:29:11;21.00;59.10
20568;DHT22;10442;49.932;11.592;2023-07-31T07:31:39;21.00;59.40
20568;DHT22;10442;49.932;11.592;2023-07-31T07:34:07;21.00;59.30
20568;DHT22;10442;49.932;11.592;2023-07-31T07:36:34;20.90;59.20
20568;DHT22;10442;49.932;11.592;2023-07-31T07:39:02;20.90;59.40
20568;DHT22;10442;49.932;11.592;2023-07-31T07:41:29;21.00;59.40
20568;DHT22;10442;49.932;11.592;2023-07-31T07:43:57;21.00;59.40
20568;DHT22;10442;49.932;11.592;2023-07-31T07:46:24;21.00;59.60
20568;DHT22;10442;49.932;11.592;2023-07-31T07:48:52;20.90;59.50
20568;DHT22;10442;49.932;11.592;2023-07-31T07:51:19;21.00;59.40
20568;DHT22;10442;49.932;11.592;2023-07-31T07:53:48;21.00;59.50
20568;DHT22;10442;49.932;11.592;2023-07-31T07:56:15;21.10;59.90
20568;DHT22;10442;49.932;11.592;2023-07-31T07:58:43;21.10;59.70
20568;DHT22;10442;49.932;11.592;2023-07-31T08:01:11;21.20;59.60
20568;DHT22;10442;49.932;11.592;2023-07-31T08:03:39;21.20;59.50
20568;DHT22;10442;49.932;11.592;2023-07-31T08:06:06;21.30;59.60
20568;DHT22;10442;49.932;11.592;2023-07-31T08:08:37;21.20;59.50
20568;DHT22;10442;49.932;11.592;2023-07-31T08:11:04;21.30;59.30
20568;DHT22;10442;49.932;11.592;2023-07-31T08:13:32;21.30;59.20
20568;DHT22;10442;49.932;11.592;2023-07-31T08:16:00;21.30;59.20
20568;DHT22;10442;49.932;11.592;2023-07-31T08:18:27;21.40;59.40
20568;DHT22;10442;49.932;11.592;2023-07-31T08:20:55;21.40;59.20
20568;DHT22;10442;49.932;11.592;2023-07-31T08:23:29;21.40;59.10
20568;DHT22;10442;49.932;11.592;2023-07-31T08:25:57;21.50;60.00
20568;DHT22;10442;49.932;11.592;2023-07-31T08:28:25;21.60;59.50
20568;DHT22;10442;49.932;11.592;2023-07-31T08:30:53;21.70;58.90
20568;DHT22;10442;49.932;11.592;2023-07-31T08:33:20;21.80;59.10
20568;DHT22;10442;49.932;11.592;2023-07-31T08:35:48;22.00;58.70
20568;DHT22;10442;49.932;11.592;2023-07-31T08:38:16;22.10;58.70
20568;DHT22;10442;49.932;11.592;2023-07-31T08:40:43;22.30;58.60
20568;DHT22;10442;49.932;11.592;2023-07-31T08:43:11;22.50;58.50
20568;DHT22;10442;49.932;11.592;2023-07-31T08:45:38;22.60;58.00
20568;DHT22;10442;49.932;11.592;2023-07-31T08:48:08;22.80;58.10
20568;DHT22;10442;49.932;11.592;2023-07-31T08:50:38;22.90;56.80
20568;DHT22;10442;49.932;11.592;2023-07-31T08:53:05;23.10;56.40
20568;DHT22;10442;49.932;11.592;2023-07-31T08:55:33;23.20;56.30
20568;DHT22;10442;49.932;11.592;2023-07-31T08:58:01;23.30;56.60
20568;DHT22;10442;49.932;11.592;2023-07-31T09:00:34;23.40;56.40
20568;DHT22;10442;49.932;11.592;2023-07-31T09:03:04;23.50;56.20
20568;DHT22;10442;49.932;11.592;2023-07-31T09:05:36;23.70;56.30
20568;DHT22;10442;49.932;11.592;2023-07-31T09:08:07;24.10;56.60
20568;DHT22;10442;49.932;11.592;2023-07-31T09:10:42;24.50;56.50
20568;DHT22;10442;49.932;11.592;2023-07-31T09:13:10;25.10;55.50
20568;DHT22;10442;49.932;11.592;2023-07-31T09:15:40;25.50;53.80
20568;DHT22;10442;49.932;11.592;2023-07-31T09:18:10;25.80;53.40
20568;DHT22;10442;49.932;11.592;2023-07-31T09:20:38;26.30;52.70
20568;DHT22;10442;49.932;11.592;2023-07-31T09:23:14;26.50;51.40
20568;DHT22;10442;49.932;11.592;2023-07-31T09:25:44;26.80;51.00
20568;DHT22;10442;49.932;11.592;2023-07-31T09:28:12;26.90;50.40
20568;DHT22;10442;49.932;11.592;2023-07-31T09:30:50;27.00;50.00
20568;DHT22;10442;49.932;11.592;2023-07-31T09:33:19;27.00;49.60
20568;DHT22;10442;49.932;11.592;2023-07-31T09:35:47;26.90;49.50
20568;DHT22;10442;49.932;11.592;2023-07-31T09:38:18;26.90;49.00
20568;DHT22;10442;49.932;11.592;2023-07-31T09:40:47;26.90;49.20
20568;DHT22;10442;49.932;11.592;2023-07-31T09:43:20;27.00;49.60
20568;DHT22;10442;49.932;11.592;2023-07-31T09:45:48;27.10;49.20
20568;DHT22;10442;49.932;11.592;2023-07-31T09:48:23;27.20;49.20
20568;DHT22;10442;49.932;11.592;2023-07-31T09:50:53;27.40;49.40
20568;DHT22;10442;49.932;11.592;2023-07-31T09:53:28;27.50;49.80
20568;DHT22;10442;49.932;11.592;2023-07-31T09:55:58;27.60;48.90
20568;DHT22;10442;49.932;11.592;2023-07-31T09:58:28;27.60;48.10
20568;DHT22;10442;49.932;11.592;2023-07-31T10:00:57;27.70;47.40
20568;DHT22;10442;49.932;11.592;2023-07-31T10:03:26;27.50;47.40
20568;DHT22;10442;49.932;11.592;2023-07-31T10:05:56;27.50;47.60
20568;DHT22;10442;49.932;11.592;2023-07-31T10:08:28;27.30;47.20
20568;DHT22;10442;49.932;11.592;2023-07-31T10:10:59;27.00;47.10
20568;DHT22;10442;49.932;11.592;2023-07-31T10:13:28;26.70;47.50
20568;DHT22;10442;49.932;11.592;2023-07-31T10:16:00;26.60;48.50
20568;DHT22;10442;49.932;11.592;2023-07-31T10:18:30;26.30;48.60
20568;DHT22;10442;49.932;11.592;2023-07-31T10:20:58;26.00;48.70
20568;DHT22;10442;49.932;11.592;2023-07-31T10:23:26;25.90;49.30
20568;DHT22;10442;49.932;11.592;2023-07-31T10:25:55;25.60;49.30
20568;DHT22;10442;49.932;11.592;2023-07-31T10:28:25;25.50;49.90
20568;DHT22;10442;49.932;11.592;2023-07-31T10:30:54;25.40;50.50
20568;DHT22;10442;49.932;11.592;2023-07-31T10:33:21;25.20;50.90
20568;DHT22;10442;49.932;11.592;2023-07-31T10:35:49;25.10;51.00
20568;DHT22;10442;49.932;11.592;2023-07-31T10:38:23;25.00;51.20
20568;DHT22;10442;49.932;11.592;2023-07-31T10:40:51;24.90;51.50
20568;DHT22;10442;49.932;11.592;2023-07-31T10:43:25;24.80;51.20
20568;DHT22;10442;49.932;11.592;2023-07-31T10:45:57;24.70;51.40
20568;DHT22;10442;49.932;11.592;2023-07-31T10:48:33;24.60;51.80
20568;DHT22;10442;49.932;11.592;2023-07-31T10:51:07;24.70;52.50
20568;DHT22;10442;49.932;11.592;2023-07-31T10:53:38;24.80;52.70
20568;DHT22;10442;49.932;11.592;2023-07-31T10:56:07;24.90;52.40
20568;DHT22;10442;49.932;11.592;2023-07-31T10:58:36;24.90;52.00
20568;DHT22;10442;49.932;11.592;2023-07-31T11:01:05;25.10;52.40
20568;DHT22;10442;49.932;11.592;2023-07-31T11:03:47;25.20;52.20
20568;DHT22;10442;49.932;11.592;2023-07-31T11:06:16;25.30;51.30
20568;DHT22;10442;49.932;11.592;2023-07-31T11:08:47;25.40;51.80
20568;DHT22;10442;49.932;11.592;2023-07-31T11:11:20;25.40;51.70
20568;DHT22;10442;49.932;11.592;2023-07-31T11:13:49;25.70;51.60
20568;DHT22;10442;49.932;11.592;2023-07-31T11:16:21;25.80;50.90
20568;DHT22;10442;49.932;11.592;2023-07-31T11:18:50;25.90;50.90
20568;DHT22;10442;49.932;11.592;2023-07-31T11:21:21;26.10;50.80
20568;DHT22;10442;49.932;11.592;2023-07-31T11:23:53;26.30;50.40
20568;DHT22;10442;49.932;11.592;2023-07-31T11:26:20;26.40;50.50
20568;DHT22;10442;49.932;11.592;2023-07-31T11:28:49;26.50;49.80
20568;DHT22;10442;49.932;11.592;2023-07-31T11:31:17;26.50;49.20
20568;DHT22;10442;49.932;11.592;2023-07-31T11:33:46;26.50;48.80
20568;DHT22;10442;49.932;11.592;2023-07-31T11:36:18;26.50;49.20
20568;DHT22;10442;49.932;11.592;2023-07-31T11:38:46;26.40;49.30
20568;DHT22;10442;49.932;11.592;2023-07-31T11:41:15;26.20;48.80
20568;DHT22;10442;49.932;11.592;2023-07-31T11:43:46;26.10;49.10
20568;DHT22;10442;49.932;11.592;2023-07-31T11:46:15;26.00;49.30
20568;DHT22;10442;49.932;11.592;2023-07-31T11:48:43;25.80;49.40
20568;DHT22;10442;49.932;11.592;2023-07-31T11:51:12;25.60;49.60
20568;DHT22;10442;49.932;11.592;2023-07-31T11:53:53;25.60;49.80
20568;DHT22;10442;49.932;11.592;2023-07-31T11:56:23;25.40;49.80
20568;DHT22;10442;49.932;11.592;2023-07-31T11:58:57;25.40;50.10
20568;DHT22;10442;49.932;11.592;2023-07-31T12:01:27;25.30;49.90
20568;DHT22;10442;49.932;11.592;2023-07-31T12:03:58;25.20;50.60
20568;DHT22;10442;49.932;11.592;2023-07-31T12:06:45;25.20;50.50
20568;DHT22;10442;49.932;11.592;2023-07-31T12:09:14;25.20;50.90
20568;DHT22;10442;49.932;11.592;2023-07-31T12:11:46;25.20;50.70
20568;DHT22;10442;49.932;11.592;2023-07-31T12:14:21;25.30;50.50
20568;DHT22;10442;49.932;11.592;2023-07-31T12:16:56;25.40;50.70
20568;DHT22;10442;49.932;11.592;2023-07-31T12:19:25;25.50;50.00
20568;DHT22;10442;49.932;11.592;2023-07-31T12:21:59;25.60;50.30
20568;DHT22;10442;49.932;11.592;2023-07-31T12:24:27;25.70;50.40
20568;DHT22;10442;49.932;11.592;2023-07-31T12:26:55;25.70;50.10
20568;DHT22;10442;49.932;11.592;2023-07-31T12:29:22;25.70;49.60
20568;DHT22;10442;49.932;11.592;2023-07-31T12:31:50;25.70;49.70
20568;DHT22;10442;49.932;11.592;2023-07-31T12:34:19;25.70;50.10
20568;DHT22;10442;49.932;11.592;2023-07-31T12:36:53;25.70;49.90
20568;DHT22;10442;49.932;11.592;2023-07-31T12:39:20;25.70;50.30
20568;DHT22;10442;49.932;11.592;2023-07-31T12:41:48;25.70;49.70
20568;DHT22;10442;49.932;11.592;2023-07-31T12:44:16;25.70;49.70
20568;DHT22;10442;49.932;11.592;2023-07-31T12:46:44;25.70;49.60
20568;DHT22;10442;49.932;11.592;2023-07-31T12:49:11;25.70;49.80
20568;DHT22;10442;49.932;11.592;2023-07-31T12:51:39;25.60;49.70
20568;DHT22;10442;49.932;11.592;2023-07-31T12:54:06;25.60;50.50
20568;DHT22;10442;49.932;11.592;2023-07-31T12:56:34;25.60;51.70
20568;DHT22;10442;49.932;11.592;2023-07-31T12:59:02;25.60;50.80
20568;DHT22;10442;49.932;11.592;2023-07-31T13:01:29;25.60;50.60
20568;DHT22;10442;49.932;11.592;2023-07-31T13:03:57;25.60;50.00
20568;DHT22;10442;49.932;11.592;2023-07-31T13:06:25;25.50;50.10
20568;DHT22;10442;49.932;11.592;2023-07-31T13:08:52;25.50;50.10
20568;DHT22;10442;49.932;11.592;2023-07-31T13:11:20;25.40;50.30
20568;DHT22;10442;49.932;11.592;2023-07-31T13:13:47;25.40;50.40
20568;DHT22;10442;49.932;11.592;2023-07-31T13:16:15;25.40;50.80
20568;DHT22;10442;49.932;11.592;2023-07-31T13:18:44;25.40;50.70
20568;DHT22;10442;49.932;11.592;2023-07-31T13:21:11;25.40;50.50
20568;DHT22;10442;49.932;11.592;2023-07-31T13:23:39;25.40;50.70
20568;DHT22;10442;49.932;11.592;2023-07-31T13:26:06;25.40;50.70
20568;DHT22;10442;49.932;11.592;2023-07-31T13:28:34;25.40;50.30
20568;DHT22;10442;49.932;11.592;2023-07-31T13:31:02;25.50;50.40
20568;DHT22;10442;49.932;11.592;2023-07-31T13:33:29;25.40;50.10
20568;DHT22;10442;49.932;11.592;2023-07-31T13:36:04;25.40;49.60
20568;DHT22;10442;49.932;11.592;2023-07-31T13:38:32;25.50;50.00
20568;DHT22;10442;49.932;11.592;2023-07-31T13:40:59;25.50;49.40
20568;DHT22;10442;49.932;11.592;2023-07-31T13:43:27;25.50;49.50
20568;DHT22;10442;49.932;11.592;2023-07-31T13:45:54;25.60;49.80
20568;DHT22;10442;49.932;11.592;2023-07-31T13:48:22;25.60;49.80
20568;DHT22;10442;49.932;11.592;2023-07-31T13:50:49;25.60;49.60
20568;DHT22;10442;49.932;11.592;2023-07-31T13:53:17;25.70;49.20
20568;DHT22;10442;49.932;11.592;2023-07-31T13:55:44;25.80;49.50
20568;DHT22;10442;49.932;11.592;2023-07-31T13:58:13;25.80;49.20
20568;DHT22;10442;49.932;11.592;2023-07-31T14:00:40;25.80;48.90
20568;DHT22;10442;49.932;11.592;2023-07-31T14:03:08;25.90;48.60
20568;DHT22;10442;49.932;11.592;2023-07-31T14:05:35;26.00;48.50
20568;DHT22;10442;49.932;11.592;2023-07-31T14:08:03;26.00;48.50
20568;DHT22;10442;49.932;11.592;2023-07-31T14:10:30;26.10;48.80
20568;DHT22;10442;49.932;11.592;2023-07-31T14:12:58;26.10;48.00
20568;DHT22;10442;49.932;11.592;2023-07-31T14:15:25;26.20;48.30
20568;DHT22;10442;49.932;11.592;2023-07-31T14:17:53;26.30;48.40
20568;DHT22;10442;49.932;11.592;2023-07-31T14:20:21;26.30;48.10
20568;DHT22;10442;49.932;11.592;2023-07-31T14:22:48;26.30;47.70
20568;DHT22;10442;49.932;11.592;2023-07-31T14:25:17;26.40;48.50
20568;DHT22;10442;49.932;11.592;2023-07-31T14:27:45;26.40;47.70
20568;DHT22;10442;49.932;11.592;2023-07-31T14:30:12;26.40;47.70
20568;DHT22;10442;49.932;11.592;2023-07-31T14:32:39;26.40;48.00
20568;DHT22;10442;49.932;11.592;2023-07-31T14:35:07;26.50;47.60
20568;DHT22;10442;49.932;11.592;2023-07-31T14:37:42;26.50;47.40
20568;DHT22;10442;49.932;11.592;2023-07-31T14:40:12;26.50;47.90
20568;DHT22;10442;49.932;11.592;2023-07-31T14:42:40;26.50;47.10
20568;DHT22;10442;49.932;11.592;2023-07-31T14:45:08;26.50;47.70
20568;DHT22;10442;49.932;11.592;2023-07-31T14:47:37;26.60;47.70
20568;DHT22;10442;49.932;11.592;2023-07-31T14:50:05;26.60;47.30
20568;DHT22;10442;49.932;11.592;2023-07-31T14:52:33;26.50;47.00
20568;DHT22;10442;49.932;11.592;2023-07-31T14:55:01;26.50;47.70
20568;DHT22;10442;49.932;11.592;2023-07-31T14:57:28;26.50;46.40
20568;DHT22;10442;49.932;11.592;2023-07-31T14:59:56;26.40;46.90
20568;DHT22;10442;49.932;11.592;2023-07-31T15:02:25;26.40;47.10
20568;DHT22;10442;49.932;11.592;2023-07-31T15:04:53;26.30;47.10
20568;DHT22;10442;49.932;11.592;2023-07-31T15:07:20;26.20;46.90
20568;DHT22;10442;49.932;11.592;2023-07-31T15:09:48;26.20;47.30
20568;DHT22;10442;49.932;11.592;2023-07-31T15:12:15;26.20;47.80
20568;DHT22;10442;49.932;11.592;2023-07-31T15:14:43;26.30;47.90
20568;DHT22;10442;49.932;11.592;2023-07-31T15:17:10;26.30;47.70
20568;DHT22;10442;49.932;11.592;2023-07-31T15:19:38;26.40;48.20
20568;DHT22;10442;49.932;11.592;2023-07-31T15:22:05;26.40;47.90
20568;DHT22;10442;49.932;11.592;2023-07-31T15:24:33;26.50;47.40
20568;DHT22;10442;49.932;11.592;2023-07-31T15:27:00;26.40;47.10
20568;DHT22;10442;49.932;11.592;2023-07-31T15:29:30;26.40;47.40
20568;DHT22;10442;49.932;11.592;2023-07-31T15:31:58;26.50;47.60
20568;DHT22;10442;49.932;11.592;2023-07-31T15:34:27;26.50;47.60